»·PEaware :: N973SE L52-L88

N973SE :: L52-L88

FLIGHT INFORMATION

Flight Status: Arrived
Operator: Privately registered:
United States
More flights under this callsign
Pilot: Stig E. (4778)
Aircraft: PIPER PA-28R-201 ARROW
(P28R)
More flights by this aircraft type
Origin: L52 Oceano Co
United States
Destination: L88 New Cuyama
United States
More flights between these airports :: More routes between these airports
Route:
File this flight plan on PilotEdge
Remarks:
Altitude:
(Current/Filed)
7,500ft
Speed:
(Current/Filed)
120kts
Departed: 13-Feb-18 10:02 AM
Arrived: 13-Feb-18 10:33 AM
Distance/Time
Traveled:
47nm/0:31
Distance/Time
To Go:
Arrived

Flight Plot

Page will automatically refresh every two minutes.


Map Options




Map Legend


Flown Route
Filed Route
Departure Airport
Arrival Airport
Navaid (VOR, NDB)
Fix

Horizontal Profiles

Position Reports

Time Latitude Longitude Heading Altitude Ground
Speed
13-Feb-18 09:50 35.103532 -120.624828 32 16ft 0kts
13-Feb-18 09:51 35.103532 -120.624828 32 16ft 0kts
13-Feb-18 09:52 35.103532 -120.624828 32 16ft 0kts
13-Feb-18 09:53 35.103532 -120.624828 32 16ft 0kts
13-Feb-18 09:54 35.103532 -120.624828 32 16ft 0kts
13-Feb-18 09:55 35.103532 -120.624828 32 16ft 0kts
13-Feb-18 09:56 35.103532 -120.624828 32 16ft 0kts
13-Feb-18 09:57 35.103532 -120.624828 32 16ft 0kts
13-Feb-18 09:58 35.103532 -120.624828 32 16ft 0kts
13-Feb-18 09:59 35.103532 -120.624828 32 16ft 0kts
13-Feb-18 10:00 35.103532 -120.624828 32 16ft 0kts
13-Feb-18 10:01 35.103532 -120.624828 32 16ft 0kts
13-Feb-18 10:02 35.103532 -120.624828 32 16ft 0kts
13-Feb-18 10:03 35.103532 -120.624828 32 16ft 0kts
13-Feb-18 10:04 35.103584 -120.625248 211 16ft 0kts
13-Feb-18 10:05 35.102796 -120.625644 132 16ft 8kts
13-Feb-18 10:06 35.100853 -120.622001 123 16ft 15kts
13-Feb-18 10:07 35.099495 -120.619458 34 16ft 0kts
13-Feb-18 10:08 35.099549 -120.619412 34 16ft 2kts
13-Feb-18 10:09 35.106051 -120.630929 302 318ft 92kts
13-Feb-18 10:10 35.114991 -120.657907 228 1449ft 92kts
13-Feb-18 10:11 35.097355 -120.640365 119 2238ft 104kts
13-Feb-18 10:12 35.082775 -120.610422 119 2989ft 101kts
13-Feb-18 10:13 35.077265 -120.577850 94 3740ft 98kts
13-Feb-18 10:14 35.073418 -120.545122 94 4494ft 97kts
13-Feb-18 10:15 35.071875 -120.512855 87 5246ft 93kts
13-Feb-18 10:16 35.070822 -120.481851 87 5996ft 89kts
13-Feb-18 10:17 35.069756 -120.451188 87 6647ft 95kts
13-Feb-18 10:18 35.068886 -120.418798 87 7248ft 94kts
13-Feb-18 10:19 35.068298 -120.385580 87 7512ft 113kts
13-Feb-18 10:20 35.067924 -120.347501 87 7514ft 112kts
13-Feb-18 10:21 35.067514 -120.309697 87 7516ft 112kts
13-Feb-18 10:22 35.067107 -120.271518 87 7516ft 112kts
13-Feb-18 10:23 35.066715 -120.231415 87 7197ft 124kts
13-Feb-18 10:24 35.066398 -120.188764 87 6755ft 126kts
13-Feb-18 10:25 35.066239 -120.145814 87 6312ft 126kts
13-Feb-18 10:26 35.066270 -120.102929 87 5869ft 127kts
13-Feb-18 10:27 35.062351 -120.060558 112 5417ft 130kts
13-Feb-18 10:28 35.046672 -120.021082 112 4970ft 129kts
13-Feb-18 10:29 35.031388 -119.981481 112 4519ft 129kts
13-Feb-18 10:30 35.016246 -119.941637 112 4069ft 130kts
13-Feb-18 10:31 35.003687 -119.908277 112 3727ft 129kts
13-Feb-18 10:32 34.986855 -119.863663 112 3720ft 125kts
13-Feb-18 10:33 34.972130 -119.824796 112 3720ft 127kts
13-Feb-18 10:34 34.959794 -119.792094 112 3720ft 127kts
13-Feb-18 10:35 34.945116 -119.753026 112 3720ft 127kts
13-Feb-18 10:36 34.931105 -119.714397 113 3564ft 118kts
13-Feb-18 10:37 34.915909 -119.675705 115 3116ft 91kts
13-Feb-18 10:38 34.923972 -119.660599 17 2811ft 79kts
13-Feb-18 10:39 34.937097 -119.678616 299 2245ft 66kts
13-Feb-18 10:40 34.942277 -119.691028 320 2154ft 13kts
13-Feb-18 10:41 34.942659 -119.690561 16 2154ft 0kts
13-Feb-18 10:42 34.942659 -119.690561 16 2154ft 0kts
13-Feb-18 10:43 34.942659 -119.690561 16 2154ft 0kts
13-Feb-18 10:44 34.942659 -119.690561 16 2154ft 0kts
13-Feb-18 10:45 34.942659 -119.690561 16 2154ft 0kts
13-Feb-18 10:46 34.942659 -119.690561 16 2154ft 0kts
13-Feb-18 10:47 34.942659 -119.690561 16 2154ft 0kts
13-Feb-18 10:48 34.942659 -119.690561 16 2154ft 0kts
13-Feb-18 10:49 34.942659 -119.690561 16 2154ft 0kts
13-Feb-18 10:50 34.942659 -119.690561 16 2154ft 0kts
13-Feb-18 10:51 34.942659 -119.690561 16 2154ft 0kts
13-Feb-18 10:52 34.942659 -119.690561 16 2154ft 0kts
13-Feb-18 10:53 34.942659 -119.690561 16 2154ft 0kts
13-Feb-18 10:54 34.942659 -119.690561 16 2154ft 0kts
13-Feb-18 10:55 34.942659 -119.690561 16 2154ft 0kts

Navigation Log

Ident Type
Flight plan parsing failed, navigation log unavailable